Terminal Aerodrome Forecast
Issued by NWS Milwaukee/Sullivan, WI

Home | Current Version | Previous Version | Text Only | Print | Product List | Glossary On
Versions: 1 2 3 4 5 6 7 8 9 10 11 12 13 14 15 16 17 18 19 20 21 22 23 24 25 26 27 28 29 30 31 32 33 34 35 36 37 38 39 40 41 42 43 44 45 46 47 48 49 50
000
FTUS43 KMKX 051508 AAB
TAFMKE
TAF AMD
KMKE 051508Z 0515/0618 08010KT 6SM -SHRA BR SCT035 OVC050
     FM051900 08012G23KT 6SM BR VCSH OVC015
     FM052100 08011G22KT 6SM BR OVC012
     FM060000 06007KT 5SM BR OVC008
     FM061700 09005KT 6SM BR BKN015=

USA.gov is the U.S. government's official web portal to all federal, state and local government web resources and services.